createdAt,value
2022-11-14T00:00:10.642Z,64.15
2022-11-14T00:03:01.069Z,63.73
2022-11-14T00:05:48.346Z,63.92
2022-11-14T00:08:36.618Z,63.67
2022-11-14T00:11:22.971Z,63.66
2022-11-14T00:14:10.841Z,64.41
2022-11-14T00:16:57.476Z,64.14
2022-11-14T00:19:43.874Z,63.79
2022-11-14T00:22:30.238Z,63.70
2022-11-14T00:25:18.454Z,63.05
2022-11-14T00:28:05.096Z,63.23
2022-11-14T00:30:51.594Z,63.81
2022-11-14T00:33:38.774Z,63.73
2022-11-14T00:36:25.440Z,63.64
2022-11-14T00:39:14.008Z,63.84
2022-11-14T00:42:01.646Z,63.80
2022-11-14T00:44:48.547Z,64.04
2022-11-14T00:47:35.429Z,64.22
2022-11-14T00:50:21.806Z,64.30
2022-11-14T00:53:08.442Z,63.85
2022-11-14T00:55:54.924Z,63.98
2022-11-14T00:58:42.665Z,64.54
2022-11-14T01:01:29.288Z,64.69
2022-11-14T01:04:15.934Z,64.28
2022-11-14T01:07:02.358Z,64.28
2022-11-14T01:09:48.921Z,64.00
2022-11-14T01:12:35.701Z,63.59
2022-11-14T01:15:25.522Z,63.49
2022-11-14T01:18:14.185Z,63.90
2022-11-14T01:21:01.267Z,64.31
2022-11-14T01:23:48.091Z,63.93
2022-11-14T01:26:34.865Z,64.17
2022-11-14T01:29:21.135Z,63.56
2022-11-14T01:32:09.553Z,64.07
2022-11-14T01:34:56.258Z,63.75
2022-11-14T01:37:42.712Z,63.68
2022-11-14T01:40:29.560Z,62.95
2022-11-14T01:43:29.919Z,63.17
2022-11-14T01:46:20.567Z,63.16
2022-11-14T01:49:16.352Z,62.95
2022-11-14T01:52:05.884Z,63.13
2022-11-14T01:54:55.621Z,62.41
2022-11-14T01:57:46.096Z,62.22
2022-11-14T02:00:32.637Z,62.48
2022-11-14T02:03:20.401Z,62.51
2022-11-14T02:06:10.464Z,62.73
2022-11-14T02:08:59.675Z,62.73
2022-11-14T02:11:47.462Z,62.84
2022-11-14T02:14:35.841Z,63.06
2022-11-14T02:17:29.609Z,62.90
2022-11-14T02:20:22.069Z,63.01
2022-11-14T02:23:08.413Z,63.07
2022-11-14T02:25:56.317Z,62.96
2022-11-14T02:28:43.223Z,62.87
2022-11-14T02:31:29.710Z,62.66
2022-11-14T02:34:19.909Z,63.00
2022-11-14T02:37:08.472Z,62.94
2022-11-14T02:39:54.826Z,62.44
2022-11-14T02:42:41.562Z,62.73
2022-11-14T02:45:28.279Z,62.80
2022-11-14T02:48:14.991Z,62.47
2022-11-14T02:51:02.000Z,62.96
2022-11-14T02:53:49.772Z,62.75
2022-11-14T02:56:36.136Z,62.55
2022-11-14T02:59:22.724Z,63.15
2022-11-14T03:02:08.942Z,62.73
2022-11-14T03:04:55.647Z,62.61
2022-11-14T03:07:42.224Z,63.08
2022-11-14T03:10:29.908Z,62.55
2022-11-14T03:13:16.568Z,62.36
2022-11-14T03:16:08.860Z,63.20
2022-11-14T03:18:55.515Z,62.89
2022-11-14T03:21:42.326Z,63.31
2022-11-14T03:24:28.844Z,62.93
2022-11-14T03:27:16.521Z,62.84
2022-11-14T03:30:03.362Z,63.19
2022-11-14T03:32:49.852Z,63.77
2022-11-14T03:35:36.018Z,63.24
2022-11-14T03:38:23.302Z,63.80
2022-11-14T03:41:09.803Z,64.46
2022-11-14T03:43:58.126Z,64.18
2022-11-14T03:46:44.345Z,64.02
2022-11-14T03:49:30.881Z,63.86
2022-11-14T03:52:17.627Z,64.64
2022-11-14T03:55:04.526Z,64.70
2022-11-14T03:57:50.836Z,64.19
2022-11-14T04:00:38.983Z,64.30
2022-11-14T04:03:26.170Z,64.60
2022-11-14T04:06:12.934Z,64.45
2022-11-14T04:09:00.035Z,64.25
2022-11-14T04:11:46.376Z,64.17
2022-11-14T04:14:32.595Z,64.46
2022-11-14T04:17:20.533Z,64.46
2022-11-14T04:20:08.094Z,64.28
2022-11-14T04:22:54.579Z,63.97
2022-11-14T04:25:40.873Z,64.39
2022-11-14T04:28:27.815Z,64.66
2022-11-14T04:31:14.569Z,63.64
2022-11-14T04:34:02.516Z,63.84
2022-11-14T04:36:51.180Z,64.24
2022-11-14T04:39:38.071Z,64.12
2022-11-14T04:42:24.916Z,64.54
2022-11-14T04:45:12.080Z,64.51
2022-11-14T04:47:58.838Z,64.17
2022-11-14T04:50:47.734Z,64.44
2022-11-14T04:53:34.566Z,64.06
2022-11-14T04:56:23.176Z,64.32
2022-11-14T04:59:09.742Z,63.68
2022-11-14T05:01:56.038Z,63.68
2022-11-14T05:04:44.395Z,63.56
2022-11-14T05:07:32.399Z,63.06
2022-11-14T05:10:19.123Z,63.29
2022-11-14T05:13:05.851Z,62.85
2022-11-14T05:15:52.808Z,63.26
2022-11-14T05:18:45.821Z,62.62
2022-11-14T05:21:33.516Z,63.06
2022-11-14T05:24:21.567Z,62.92
2022-11-14T05:27:08.281Z,63.20
2022-11-14T05:29:55.372Z,63.44
2022-11-14T05:32:41.958Z,63.29
2022-11-14T05:35:28.294Z,63.35
2022-11-14T05:38:14.838Z,63.82
2022-11-14T05:41:06.898Z,63.45
2022-11-14T05:43:53.645Z,63.77
2022-11-14T05:46:40.352Z,63.21
2022-11-14T05:49:26.945Z,63.23
2022-11-14T05:52:13.219Z,63.38
2022-11-14T05:54:59.955Z,62.96
2022-11-14T05:57:47.861Z,63.47
2022-11-14T06:00:39.482Z,63.75
2022-11-14T06:03:32.540Z,63.07
2022-11-14T06:06:22.456Z,62.85
2022-11-14T06:09:09.091Z,63.16
2022-11-14T06:11:55.795Z,64.06
2022-11-14T06:14:43.528Z,64.13
2022-11-14T06:17:30.309Z,63.75
2022-11-14T06:20:16.795Z,63.48
2022-11-14T06:23:03.306Z,63.00
2022-11-14T06:25:50.028Z,63.42
2022-11-14T06:28:36.425Z,63.52
2022-11-14T06:31:25.067Z,63.76
2022-11-14T06:34:12.731Z,63.20
2022-11-14T06:36:59.465Z,63.30
2022-11-14T06:39:46.432Z,63.31
2022-11-14T06:42:32.827Z,63.66
2022-11-14T06:45:19.306Z,63.37
2022-11-14T06:48:07.954Z,63.60
2022-11-14T06:50:55.764Z,62.99
2022-11-14T06:53:43.463Z,63.20
2022-11-14T06:56:30.051Z,63.16
2022-11-14T06:59:16.613Z,63.58
2022-11-14T07:02:03.478Z,63.18
2022-11-14T07:04:51.479Z,62.93
2022-11-14T07:07:38.160Z,63.66
2022-11-14T07:10:24.551Z,63.59
2022-11-14T07:13:11.548Z,63.29
2022-11-14T07:15:58.609Z,63.09
2022-11-14T07:18:45.569Z,62.79
2022-11-14T07:21:34.949Z,62.94
2022-11-14T07:24:21.969Z,63.08
2022-11-14T07:27:12.191Z,63.08
2022-11-14T07:29:58.548Z,62.54
2022-11-14T07:32:45.266Z,62.82
2022-11-14T07:35:31.601Z,63.21
2022-11-14T07:38:20.131Z,62.56
2022-11-14T07:41:08.957Z,63.62
2022-11-14T07:43:55.391Z,62.67
2022-11-14T07:46:42.181Z,62.71
2022-11-14T07:49:29.002Z,63.27
2022-11-14T07:52:16.091Z,63.50
2022-11-14T07:55:03.971Z,62.96
2022-11-14T07:57:54.596Z,63.23
2022-11-14T08:00:41.408Z,62.72
2022-11-14T08:03:28.040Z,62.46
2022-11-14T08:06:16.811Z,62.67
2022-11-14T08:09:03.294Z,62.49
2022-11-14T08:11:51.897Z,62.31
2022-11-14T08:14:38.467Z,62.32
2022-11-14T08:17:25.338Z,62.68
2022-11-14T08:20:12.968Z,61.98
2022-11-14T08:23:03.864Z,62.02
2022-11-14T08:25:50.579Z,62.66
2022-11-14T08:28:38.415Z,62.11
2022-11-14T08:31:25.193Z,62.44
2022-11-14T08:34:11.891Z,62.35
2022-11-14T08:36:58.668Z,62.34
2022-11-14T08:39:45.505Z,62.41
2022-11-14T08:42:32.183Z,62.55
2022-11-14T08:45:20.162Z,62.60
2022-11-14T08:48:07.643Z,62.71
2022-11-14T08:50:54.480Z,62.91
2022-11-14T08:53:41.778Z,63.09
2022-11-14T08:56:28.127Z,62.57
2022-11-14T08:59:15.030Z,62.06
2022-11-14T09:02:03.163Z,62.26
2022-11-14T09:04:49.622Z,62.18
2022-11-14T09:07:36.676Z,62.51
2022-11-14T09:10:23.165Z,62.76
2022-11-14T09:13:09.707Z,62.10
2022-11-14T09:15:56.410Z,62.24
2022-11-14T09:18:44.772Z,61.91
2022-11-14T09:21:31.254Z,62.10
2022-11-14T09:24:18.279Z,62.58
2022-11-14T09:27:05.038Z,62.47
2022-11-14T09:29:51.787Z,61.98
2022-11-14T09:32:39.198Z,61.97
2022-11-14T09:35:27.329Z,62.22
2022-11-14T09:38:13.831Z,62.65
2022-11-14T09:41:11.538Z,62.96
2022-11-14T09:44:22.593Z,61.87
2022-11-14T09:47:16.620Z,62.35
2022-11-14T09:50:15.976Z,62.05
2022-11-14T09:53:08.845Z,61.68
2022-11-14T09:55:55.701Z,60.12
2022-11-14T09:58:43.857Z,61.58
2022-11-14T10:01:41.001Z,61.10
2022-11-14T10:04:45.001Z,60.58
2022-11-14T10:07:44.116Z,60.92
2022-11-14T10:10:49.210Z,61.85
2022-11-14T10:14:06.815Z,61.53
2022-11-14T10:17:10.363Z,61.12
2022-11-14T10:20:04.429Z,60.98
2022-11-14T10:23:13.970Z,60.93
2022-11-14T10:26:13.116Z,60.73
2022-11-14T10:29:39.529Z,61.10
2022-11-14T10:32:38.966Z,61.14
2022-11-14T10:35:35.079Z,61.06
2022-11-14T10:38:28.947Z,61.26
2022-11-14T10:41:34.569Z,61.07
2022-11-14T10:44:30.193Z,61.32
2022-11-14T10:47:22.807Z,60.66
2022-11-14T10:50:20.793Z,60.19
2022-11-14T10:53:19.329Z,60.78
2022-11-14T10:56:05.818Z,60.64
2022-11-14T10:58:53.991Z,60.44
2022-11-14T11:01:44.462Z,61.07
2022-11-14T11:04:33.029Z,61.38
2022-11-14T11:07:54.974Z,61.26
2022-11-14T11:11:03.612Z,61.28
2022-11-14T11:13:56.005Z,61.61
2022-11-14T11:16:42.336Z,60.46
2022-11-14T11:19:30.901Z,60.76
2022-11-14T11:22:39.085Z,60.94
2022-11-14T11:25:27.711Z,61.23
2022-11-14T11:28:17.229Z,61.08
2022-11-14T11:31:06.962Z,60.68
2022-11-14T11:33:53.473Z,61.30
2022-11-14T11:36:43.813Z,61.21
2022-11-14T11:39:33.378Z,60.53
2022-11-14T11:42:25.318Z,60.23
2022-11-14T11:45:17.616Z,59.74
2022-11-14T11:48:16.341Z,59.00
2022-11-14T11:51:04.996Z,58.70
2022-11-14T11:53:58.996Z,59.17
2022-11-14T11:56:49.251Z,58.91
2022-11-14T11:59:43.944Z,59.40
2022-11-14T12:02:31.552Z,59.19
2022-11-14T12:05:26.975Z,59.43
2022-11-14T12:08:23.876Z,59.61
2022-11-14T12:11:15.352Z,59.01
2022-11-14T12:14:35.074Z,58.10
2022-11-14T12:17:39.143Z,58.48
2022-11-14T12:20:57.525Z,58.22
2022-11-14T12:24:10.117Z,58.51
2022-11-14T12:27:27.906Z,57.91
2022-11-14T12:30:30.984Z,57.50
2022-11-14T12:33:24.682Z,57.32
2022-11-14T12:36:14.882Z,57.08
2022-11-14T12:39:03.145Z,56.24
2022-11-14T12:41:50.005Z,56.05
2022-11-14T12:44:39.101Z,55.13
2022-11-14T12:47:29.078Z,54.95
2022-11-14T12:50:43.093Z,54.44
2022-11-14T12:53:46.971Z,54.61
2022-11-14T12:57:01.412Z,55.00
2022-11-14T12:59:58.698Z,55.31
2022-11-14T13:03:13.044Z,54.80
2022-11-14T13:06:02.367Z,54.55
2022-11-14T13:09:27.598Z,54.81
2022-11-14T13:12:45.926Z,54.11
2022-11-14T13:15:52.470Z,53.85
2022-11-14T13:19:10.560Z,54.37
2022-11-14T13:22:38.047Z,54.44
2022-11-14T13:25:26.569Z,54.26
2022-11-14T13:28:45.321Z,54.50
2022-11-14T13:31:50.868Z,54.75
2022-11-14T13:34:45.283Z,53.84
2022-11-14T13:38:00.183Z,55.13
2022-11-14T13:40:53.210Z,54.20
2022-11-14T13:43:57.430Z,53.41
2022-11-14T13:46:59.737Z,54.17
2022-11-14T13:50:02.349Z,54.75
2022-11-14T13:52:50.134Z,55.09
2022-11-14T13:55:55.797Z,54.89
2022-11-14T13:59:09.825Z,54.98
2022-11-14T14:02:28.735Z,55.57
2022-11-14T14:05:28.862Z,55.63
2022-11-14T14:08:27.626Z,55.62
2022-11-14T14:11:42.668Z,55.91
2022-11-14T14:14:52.673Z,56.29
2022-11-14T14:17:50.677Z,55.72
2022-11-14T14:20:46.281Z,56.18
2022-11-14T14:28:01.882Z,54.59
2022-11-14T14:31:02.645Z,54.98
2022-11-14T14:33:51.395Z,54.50
2022-11-14T14:36:37.749Z,54.04
2022-11-14T14:39:26.405Z,54.70
2022-11-14T14:42:13.414Z,55.13
2022-11-14T14:45:03.657Z,54.47
2022-11-14T14:47:52.634Z,54.34
2022-11-14T14:50:41.782Z,55.19
2022-11-14T14:53:34.076Z,55.72
2022-11-14T14:56:22.493Z,55.64
2022-11-14T14:59:20.677Z,55.66
2022-11-14T15:02:16.230Z,55.81
2022-11-14T15:05:04.015Z,55.81
2022-11-14T15:07:52.044Z,55.70
2022-11-14T15:10:39.188Z,55.77
2022-11-14T15:13:28.596Z,55.53
2022-11-14T15:16:15.769Z,55.98
2022-11-14T15:19:04.187Z,56.24
2022-11-14T15:22:05.103Z,56.11
2022-11-14T15:25:18.323Z,56.53
2022-11-14T15:28:07.504Z,56.50
2022-11-14T15:30:59.802Z,56.81
2022-11-14T15:33:47.316Z,56.16
2022-11-14T15:36:35.454Z,56.15
2022-11-14T15:39:28.020Z,56.61
2022-11-14T15:42:15.838Z,57.00
2022-11-14T15:45:21.522Z,56.19
2022-11-14T15:48:16.483Z,56.95
2022-11-14T15:51:03.356Z,57.16
2022-11-14T15:53:53.393Z,57.22
2022-11-14T15:56:40.643Z,57.70
2022-11-14T15:59:28.637Z,57.45
2022-11-14T16:02:19.241Z,57.39
2022-11-14T16:05:06.513Z,57.58
2022-11-14T16:07:53.485Z,57.75
2022-11-14T16:10:41.730Z,57.04
2022-11-14T16:13:29.601Z,57.46
2022-11-14T16:16:16.713Z,57.74
2022-11-14T16:19:03.700Z,57.74
2022-11-14T16:21:50.607Z,57.65
2022-11-14T16:24:37.655Z,57.55
2022-11-14T16:27:26.005Z,58.22
2022-11-14T16:30:15.101Z,58.25
2022-11-14T16:33:02.166Z,58.03
2022-11-14T16:35:48.625Z,57.77
2022-11-14T16:38:35.315Z,58.26
2022-11-14T16:41:21.823Z,58.55
2022-11-14T16:44:15.985Z,59.04
2022-11-14T16:47:02.583Z,58.79
2022-11-14T16:49:48.969Z,58.94
2022-11-14T16:52:35.576Z,59.09
2022-11-14T16:55:22.180Z,58.70
2022-11-14T16:58:08.687Z,58.69
2022-11-14T17:00:56.878Z,58.42
2022-11-14T17:03:44.137Z,58.62
2022-11-14T17:06:31.410Z,58.92
2022-11-14T17:09:18.556Z,58.56
2022-11-14T17:12:07.136Z,58.81
2022-11-14T17:14:54.624Z,58.80
2022-11-14T17:17:46.248Z,58.92
2022-11-14T17:20:33.755Z,58.69
2022-11-14T17:23:20.200Z,58.88
2022-11-14T17:26:09.057Z,58.72
2022-11-14T17:28:56.651Z,58.56
2022-11-14T17:31:47.374Z,58.42
2022-11-14T17:34:36.103Z,58.43
2022-11-14T17:37:22.561Z,58.43
2022-11-14T17:40:15.349Z,58.80
2022-11-14T17:43:02.520Z,58.83
2022-11-14T17:45:56.128Z,58.53
2022-11-14T17:48:43.212Z,58.68
2022-11-14T17:51:31.959Z,58.35
2022-11-14T17:54:19.080Z,58.47
2022-11-14T17:57:06.567Z,58.30
2022-11-14T17:59:53.402Z,58.70
2022-11-14T18:02:40.257Z,58.57
2022-11-14T18:05:27.045Z,58.80
2022-11-14T18:08:15.116Z,58.92
2022-11-14T18:11:01.929Z,58.54
2022-11-14T18:13:48.277Z,58.55
2022-11-14T18:16:57.444Z,58.48
2022-11-14T18:19:41.916Z,59.11
2022-11-14T18:22:28.750Z,59.12
2022-11-14T18:25:16.730Z,59.31
2022-11-14T18:28:03.544Z,59.11
2022-11-14T18:30:56.759Z,59.45
2022-11-14T18:33:43.356Z,59.21
2022-11-14T18:36:30.538Z,59.13
2022-11-14T18:39:16.764Z,59.12
2022-11-14T18:42:05.008Z,58.96
2022-11-14T18:44:51.985Z,59.48
2022-11-14T18:47:38.700Z,59.74
2022-11-14T18:50:26.033Z,59.40
2022-11-14T18:53:12.664Z,59.59
2022-11-14T18:55:59.687Z,59.35
2022-11-14T18:58:48.493Z,59.53
2022-11-14T19:01:35.562Z,59.57
2022-11-14T19:04:23.516Z,59.92
2022-11-14T19:07:11.158Z,59.67
2022-11-14T19:09:58.635Z,59.48
2022-11-14T19:12:48.369Z,59.55
2022-11-14T19:15:36.596Z,59.60
2022-11-14T19:18:24.118Z,59.52
2022-11-14T19:21:10.648Z,59.28
2022-11-14T19:23:59.715Z,59.62
2022-11-14T19:26:46.630Z,60.13
2022-11-14T19:29:33.126Z,59.68
2022-11-14T19:32:20.975Z,59.84
2022-11-14T19:35:08.072Z,59.51
2022-11-14T19:37:54.819Z,59.99
2022-11-14T19:40:41.435Z,60.17
2022-11-14T19:43:28.951Z,59.60
2022-11-14T19:46:17.061Z,60.09
2022-11-14T19:49:05.704Z,60.72
2022-11-14T19:51:52.264Z,60.53
2022-11-14T19:54:39.227Z,60.60
2022-11-14T19:57:25.886Z,60.52
2022-11-14T20:00:13.219Z,60.21
2022-11-14T20:02:59.998Z,60.35
2022-11-14T20:05:48.213Z,60.23
2022-11-14T20:08:34.904Z,60.14
2022-11-14T20:11:25.240Z,60.76
2022-11-14T20:14:13.808Z,60.90
2022-11-14T20:17:01.024Z,60.96
2022-11-14T20:19:47.730Z,60.81
2022-11-14T20:22:36.887Z,60.85
2022-11-14T20:25:24.392Z,60.32
2022-11-14T20:28:13.202Z,60.05
2022-11-14T20:31:02.978Z,60.39
2022-11-14T20:33:50.988Z,60.24
2022-11-14T20:37:08.771Z,60.35
2022-11-14T20:39:46.595Z,60.27
2022-11-14T20:42:32.995Z,61.08
2022-11-14T20:45:19.399Z,60.57
2022-11-14T20:48:09.487Z,60.59
2022-11-14T20:51:03.873Z,60.32
2022-11-14T20:53:51.188Z,60.06
2022-11-14T20:56:39.133Z,60.04
2022-11-14T20:59:25.455Z,60.37
2022-11-14T21:02:15.140Z,60.65
2022-11-14T21:05:02.676Z,60.85
2022-11-14T21:07:49.407Z,60.92
2022-11-14T21:10:47.380Z,61.03
2022-11-14T21:13:55.706Z,61.26
2022-11-14T21:16:42.543Z,61.45
2022-11-14T21:19:29.768Z,61.04
2022-11-14T21:22:16.565Z,61.33
2022-11-14T21:25:03.897Z,61.10
2022-11-14T21:27:50.477Z,60.61
2022-11-14T21:30:38.673Z,61.08
2022-11-14T21:33:26.121Z,61.32
2022-11-14T21:36:44.468Z,61.30
2022-11-14T21:39:21.724Z,61.56
2022-11-14T21:42:08.190Z,61.26
2022-11-14T21:44:54.951Z,61.24
2022-11-14T21:47:43.001Z,62.00
2022-11-14T21:50:29.296Z,61.59
2022-11-14T21:53:16.668Z,61.29
2022-11-14T21:56:10.736Z,61.86
2022-11-14T22:02:10.436Z,61.76
2022-11-14T22:04:57.646Z,61.40
2022-11-14T22:07:45.292Z,61.91
2022-11-14T22:10:31.996Z,61.67
2022-11-14T22:13:18.612Z,61.55
2022-11-14T22:16:06.440Z,61.90
2022-11-14T22:18:57.161Z,61.54
2022-11-14T22:21:47.582Z,61.31
2022-11-14T22:24:34.339Z,61.98
2022-11-14T22:27:20.937Z,61.83
2022-11-14T22:30:08.979Z,61.78
2022-11-14T22:32:55.382Z,62.14
2022-11-14T22:35:43.165Z,62.10
2022-11-14T22:38:30.232Z,62.39
2022-11-14T22:41:18.333Z,62.75
2022-11-14T22:44:04.561Z,62.61
2022-11-14T22:46:51.285Z,63.35
2022-11-14T22:49:37.842Z,63.21
2022-11-14T22:52:25.851Z,63.82
2022-11-14T22:55:17.828Z,63.25
2022-11-14T22:58:04.720Z,63.24
2022-11-14T23:00:51.867Z,63.11
2022-11-14T23:03:38.884Z,63.47
2022-11-14T23:06:26.678Z,63.21
2022-11-14T23:09:14.779Z,63.50
2022-11-14T23:12:01.580Z,63.37
2022-11-14T23:14:48.474Z,63.43
2022-11-14T23:17:35.012Z,63.05
2022-11-14T23:20:21.442Z,62.62
2022-11-14T23:23:08.303Z,62.39
2022-11-14T23:25:55.984Z,62.32
2022-11-14T23:28:43.088Z,62.61
2022-11-14T23:31:29.892Z,62.52
2022-11-14T23:34:16.250Z,62.79
2022-11-14T23:37:02.806Z,62.65
2022-11-14T23:39:49.535Z,62.80
2022-11-14T23:42:37.192Z,62.54
2022-11-14T23:45:23.746Z,62.78
2022-11-14T23:48:10.258Z,62.54
2022-11-14T23:50:57.774Z,62.61
2022-11-14T23:53:45.195Z,62.23
2022-11-14T23:56:31.867Z,62.33
2022-11-14T23:59:19.871Z,62.51
